Medina Lake, Texas
Current Conditions -  °F | °C
As of 1:55 AM on Friday 19 Dec 2014 (Local Time) from K5C1 Reporting Station
Overcast Overcast  
Wind Chill: 50°   Ceiling: 400
Heat Index: 50°   Visibility: 3mi
Dew Point: 48°   Wind: 5mph
Humidity: 94%   Direction: 40°NE
Pressure: 30.05"   Gusts: NA
Location:  29.6773°N, 98.9°W
Report Text: K5C1 190755Z AUTO 04004KT 3SM OVC004 10/09 A3005 RMK AO1 P0002
Loading
Personal Weather Stations






























Interactive Weather Map New forecast layout! Learn more

10-Day Weather Forecast

Advertisements
Track Severe Weather on mobile